Time;durP1;ratioP1;P1;durP2;ratioP2;P2;SDS_P1;SDS_P2;PMS_P1;PMS_P2;Temp;Humidity;BMP_temperature;BMP_pressure;BME280_temperature;BME280_humidity;BME280_pressure;Samples;Min_cycle;Max_cycle;Signal;HPM_P1;HPM_P2
2023/07/05 00:00:39;;;;;;;4.10;1.73;;;19.80;1.00;;;;;;4935342;29;20031;-85
2023/07/05 00:03:05;;;;;;;3.75;1.33;;;19.80;1.00;;;;;;4935341;29;20043;-84
2023/07/05 00:05:35;;;;;;;4.13;1.38;;;19.80;1.00;;;;;;4940678;29;20036;-81
2023/07/05 00:08:02;;;;;;;6.35;1.92;;;19.80;1.00;;;;;;4936077;29;20040;-84
2023/07/05 00:10:28;;;;;;;2.75;1.65;;;19.90;1.00;;;;;;4934292;29;20200;-83
2023/07/05 00:12:55;;;;;;;2.63;1.77;;;19.90;1.00;;;;;;4936224;29;20043;-84
2023/07/05 00:15:21;;;;;;;3.08;1.42;;;19.90;1.00;;;;;;4938245;29;20047;-83
2023/07/05 00:17:47;;;;;;;3.63;1.73;;;20.00;1.00;;;;;;4935156;29;20051;-82
2023/07/05 00:20:13;;;;;;;3.30;2.25;;;19.90;1.00;;;;;;4933106;29;20040;-85
2023/07/05 00:22:39;;;;;;;4.25;2.17;;;19.90;1.00;;;;;;4934398;29;20364;-88
2023/07/05 00:25:06;;;;;;;5.00;2.20;;;19.90;1.00;;;;;;4908312;29;20040;-84
2023/07/05 00:27:32;;;;;;;13.60;3.47;;;19.90;1.00;;;;;;4931617;29;20040;-82
2023/07/05 00:29:58;;;;;;;7.93;3.72;;;19.60;98.00;;;;;;4933160;29;20043;-89
2023/07/05 00:32:25;;;;;;;6.05;2.75;;;18.80;99.90;;;;;;4915081;29;20347;-86
2023/07/05 00:34:51;;;;;;;4.53;2.80;;;18.20;99.90;;;;;;4934120;29;20579;-85
2023/07/05 00:37:17;;;;;;;6.40;2.88;;;18.00;1.00;;;;;;4934097;29;20035;-85
2023/07/05 00:39:44;;;;;;;9.15;3.22;;;18.00;1.00;;;;;;4922896;29;20039;-77
2023/07/05 00:42:10;;;;;;;8.70;3.13;;;17.90;40.00;;;;;;4938658;29;20458;-86
2023/07/05 00:44:36;;;;;;;7.50;3.53;;;17.80;93.80;;;;;;4935190;29;20058;-85
2023/07/05 00:47:17;;;;;;;8.10;3.67;;;17.80;99.90;;;;;;4934362;29;20039;-86
2023/07/05 00:49:43;;;;;;;9.48;3.97;;;17.80;99.90;;;;;;4934520;29;20046;-80
2023/07/05 00:52:16;;;;;;;6.55;3.63;;;17.80;99.90;;;;;;4914807;29;20098;-85
2023/07/05 00:54:48;;;;;;;6.07;4.32;;;17.80;99.90;;;;;;4934628;29;20047;-84
2023/07/05 00:57:19;;;;;;;7.50;3.10;;;17.80;99.90;;;;;;4932101;29;20044;-84
2023/07/05 00:59:55;;;;;;;10.32;4.18;;;17.70;99.90;;;;;;4934368;29;20467;-80
2023/07/05 01:02:22;;;;;;;6.13;4.13;;;17.70;99.90;;;;;;4936069;29;20040;-88
2023/07/05 01:04:48;;;;;;;6.10;3.53;;;17.50;99.90;;;;;;4937880;29;20410;-89
2023/07/05 01:07:15;;;;;;;4.60;2.90;;;17.40;99.90;;;;;;4937777;29;20043;-87
2023/07/05 01:09:45;;;;;;;6.72;3.00;;;17.40;99.90;;;;;;4935991;29;20087;-82
2023/07/05 01:12:20;;;;;;;7.67;2.30;;;17.30;99.90;;;;;;4935434;29;20471;-87
2023/07/05 01:15:03;;;;;;;8.07;3.13;;;17.30;99.90;;;;;;4937242;29;20418;-88
2023/07/05 01:17:50;;;;;;;3.92;2.78;;;17.30;99.90;;;;;;4919668;29;20411;-89
2023/07/05 01:20:25;;;;;;;8.02;2.65;;;17.30;99.90;;;;;;4914041;29;20471;-89
2023/07/05 01:23:30;;;;;;;5.50;2.88;;;17.20;99.90;;;;;;4937337;29;20059;-77
2023/07/05 01:26:25;;;;;;;6.20;3.08;;;17.10;99.90;;;;;;4937122;29;20042;-88
2023/07/05 01:29:10;;;;;;;5.22;3.05;;;17.00;99.90;;;;;;4934130;29;20063;-79
2023/07/05 01:32:03;;;;;;;5.85;2.97;;;16.90;99.90;;;;;;4935377;29;20031;-88
2023/07/05 01:34:48;;;;;;;6.85;3.50;;;17.10;99.90;;;;;;4931458;29;20062;-90
2023/07/05 01:37:32;;;;;;;5.93;3.60;;;17.10;99.90;;;;;;4936990;29;20032;-90
2023/07/05 01:39:58;;;;;;;5.43;3.13;;;17.10;99.90;;;;;;4915808;29;20316;-90
2023/07/05 01:42:32;;;;;;;6.13;3.03;;;17.00;99.90;;;;;;4937993;29;20034;-91
2023/07/05 01:45:00;;;;;;;5.80;3.00;;;16.90;99.90;;;;;;4937286;29;20052;-90
2023/07/05 01:47:37;;;;;;;7.40;3.88;;;16.90;99.90;;;;;;4937570;29;20034;-89
2023/07/05 01:50:30;;;;;;;6.45;3.53;;;16.90;99.90;;;;;;4936041;29;20047;-87
2023/07/05 01:53:04;;;;;;;6.43;4.28;;;16.90;99.90;;;;;;4937654;29;20046;-90
2023/07/05 01:55:58;;;;;;;4.95;3.60;;;17.00;99.90;;;;;;4937744;29;20055;-89
2023/07/05 01:58:30;;;;;;;8.25;4.95;;;17.00;99.90;;;;;;4935390;29;20043;-90
2023/07/05 02:00:59;;;;;;;10.05;5.10;;;17.00;99.90;;;;;;4933682;29;20048;-89
2023/07/05 02:03:29;;;;;;;9.57;5.18;;;17.10;1.00;;;;;;4915816;29;20051;-89
2023/07/05 02:05:55;;;;;;;6.05;3.88;;;17.10;1.00;;;;;;4939483;29;20459;-88
2023/07/05 02:08:27;;;;;;;6.97;4.68;;;17.00;1.00;;;;;;4944049;29;20036;-91
2023/07/05 02:10:55;;;;;;;7.93;3.97;;;17.00;99.90;;;;;;4939079;29;20043;-83
2023/07/05 02:13:21;;;;;;;10.05;4.13;;;16.90;99.90;;;;;;4947356;29;20046;-91
2023/07/05 02:15:50;;;;;;;8.32;5.32;;;16.80;99.90;;;;;;4939005;29;20024;-88
2023/07/05 02:18:17;;;;;;;9.13;4.50;;;16.80;99.90;;;;;;4939652;29;20411;-87
2023/07/05 02:20:44;;;;;;;4.47;3.55;;;16.90;99.90;;;;;;4919385;29;20505;-88
2023/07/05 02:23:10;;;;;;;6.03;3.97;;;16.90;99.90;;;;;;4936702;29;20387;-87
2023/07/05 02:25:36;;;;;;;11.70;5.35;;;16.80;99.90;;;;;;4937038;29;20039;-88
2023/07/05 02:28:07;;;;;;;12.40;4.35;;;16.80;99.90;;;;;;4936203;29;20083;-88
2023/07/05 02:30:36;;;;;;;;;;;16.80;99.90;;;;;;4954638;29;20038;-83
2023/07/05 02:33:02;;;;;;;7.28;4.13;;;16.80;99.90;;;;;;4954498;29;19918;-87
2023/07/05 02:35:28;;;;;;;9.05;4.47;;;16.80;99.90;;;;;;4946605;29;20051;-85
2023/07/05 02:37:55;;;;;;;7.13;4.60;;;16.80;99.90;;;;;;4956163;29;20020;-78
2023/07/05 02:40:23;;;;;;;4.22;3.50;;;16.80;99.90;;;;;;4939258;29;20043;-88
2023/07/05 02:42:49;;;;;;;7.00;3.92;;;16.70;99.90;;;;;;4935887;29;20131;-85
2023/07/05 02:45:15;;;;;;;6.22;3.97;;;16.70;99.90;;;;;;4935435;29;20032;-87
2023/07/05 02:47:41;;;;;;;6.78;4.18;;;16.60;99.90;;;;;;4935891;29;20367;-82
2023/07/05 02:50:08;;;;;;;4.88;3.42;;;16.60;99.90;;;;;;4934170;29;20036;-84
2023/07/05 02:52:35;;;;;;;7.47;3.30;;;16.60;99.90;;;;;;4935932;29;20047;-85
2023/07/05 02:55:01;;;;;;;5.63;3.38;;;16.60;99.90;;;;;;4932445;29;20073;-86
2023/07/05 02:57:27;;;;;;;6.28;3.80;;;16.60;99.90;;;;;;4935764;29;20054;-83
2023/07/05 02:59:54;;;;;;;4.88;2.80;;;16.60;99.90;;;;;;4934065;29;20393;-76
2023/07/05 03:02:20;;;;;;;6.13;3.00;;;16.50;99.90;;;;;;4935437;29;20042;-85
2023/07/05 03:04:47;;;;;;;6.38;3.20;;;16.50;99.90;;;;;;4935785;29;20074;-86
2023/07/05 03:07:13;;;;;;;5.25;3.20;;;16.50;99.90;;;;;;4934878;29;20202;-85
2023/07/05 03:09:39;;;;;;;5.43;3.42;;;16.40;99.90;;;;;;4915993;29;20075;-82
2023/07/05 03:12:06;;;;;;;5.07;3.28;;;16.30;99.90;;;;;;4934370;29;20051;-86
2023/07/05 03:14:32;;;;;;;4.20;2.90;;;16.30;99.90;;;;;;4934989;29;20059;-85
2023/07/05 03:16:59;;;;;;;4.97;3.33;;;16.30;99.90;;;;;;4934175;29;20059;-86
2023/07/05 03:19:25;;;;;;;6.38;3.40;;;16.30;99.90;;;;;;4935418;29;20044;-85
2023/07/05 03:21:51;;;;;;;5.68;2.67;;;16.30;99.90;;;;;;4906835;29;20051;-86
2023/07/05 03:24:17;;;;;;;5.30;3.05;;;16.30;99.90;;;;;;4934502;29;20035;-87
2023/07/05 03:26:43;;;;;;;8.40;3.10;;;16.30;99.90;;;;;;4934057;29;20415;-86
2023/07/05 03:29:10;;;;;;;6.47;3.03;;;16.40;99.90;;;;;;4933631;29;20071;-85
2023/07/05 03:31:36;;;;;;;5.55;2.95;;;16.40;99.90;;;;;;4932396;29;20050;-84
2023/07/05 03:34:02;;;;;;;4.55;2.50;;;16.50;99.90;;;;;;4915928;29;20063;-85
2023/07/05 03:36:28;;;;;;;4.13;2.63;;;16.60;99.90;;;;;;4934659;29;20036;-84
2023/07/05 03:38:54;;;;;;;5.55;2.83;;;16.60;99.90;;;;;;4934691;29;20039;-82
2023/07/05 03:41:23;;;;;;;4.70;2.85;;;16.60;99.90;;;;;;4933005;29;20043;-86
2023/07/05 03:43:56;;;;;;;5.13;2.38;;;16.70;99.90;;;;;;4933826;29;20394;-85
2023/07/05 03:46:23;;;;;;;5.07;2.65;;;16.70;99.90;;;;;;4913845;29;20056;-87
2023/07/05 03:48:50;;;;;;;4.20;2.60;;;16.70;99.90;;;;;;4934499;29;20404;-86
2023/07/05 03:51:18;;;;;;;4.32;2.20;;;16.70;99.90;;;;;;4932269;29;20036;-88
2023/07/05 03:53:53;;;;;;;9.60;3.88;;;16.80;99.90;;;;;;4934028;29;20407;-88
2023/07/05 03:56:20;;;;;;;3.17;2.05;;;16.80;99.90;;;;;;4933570;29;20031;-85
2023/07/05 03:58:46;;;;;;;3.95;2.63;;;16.80;99.90;;;;;;4933980;29;20039;-83
2023/07/05 04:01:15;;;;;;;4.65;2.00;;;16.90;99.90;;;;;;4931246;29;20494;-82
2023/07/05 04:03:43;;;;;;;3.83;2.00;;;17.00;99.90;;;;;;4934375;29;20046;-84
2023/07/05 04:06:09;;;;;;;4.55;2.28;;;17.00;99.90;;;;;;4934223;29;20047;-86
2023/07/05 04:08:36;;;;;;;6.18;2.40;;;17.00;99.90;;;;;;4936272;29;20039;-85
2023/07/05 04:11:02;;;;;;;4.25;2.75;;;17.10;99.90;;;;;;4928523;29;20044;-83
2023/07/05 04:13:28;;;;;;;2.88;1.95;;;17.10;99.90;;;;;;4933917;29;20494;-83
2023/07/05 04:16:18;;;;;;;4.53;2.35;;;17.10;99.90;;;;;;4933384;29;20043;-85
2023/07/05 04:18:46;;;;;;;5.03;2.22;;;17.20;99.90;;;;;;4910962;29;20396;-85
2023/07/05 04:21:13;;;;;;;4.03;1.65;;;17.20;99.90;;;;;;4912107;29;20036;-85
2023/07/05 04:23:41;;;;;;;5.22;1.95;;;17.30;99.90;;;;;;4914432;29;20036;-82
2023/07/05 04:26:13;;;;;;;4.05;2.08;;;17.30;99.90;;;;;;4913468;29;20040;-83
2023/07/05 04:28:41;;;;;;;5.18;2.22;;;17.30;99.90;;;;;;4913579;29;20039;-86
2023/07/05 04:31:09;;;;;;;3.20;2.38;;;17.40;86.30;;;;;;4915322;29;20055;-85
2023/07/05 04:33:36;;;;;;;4.00;2.38;;;17.40;56.40;;;;;;4914123;29;20135;-90
2023/07/05 04:36:02;;;;;;;3.03;1.98;;;17.40;41.80;;;;;;4915374;29;20028;-92
2023/07/05 04:38:29;;;;;;;3.03;1.75;;;17.40;31.00;;;;;;4919808;29;20032;-88
2023/07/05 04:40:57;;;;;;;5.05;1.88;;;17.60;10.80;;;;;;4918599;29;20043;-89
2023/07/05 04:43:24;;;;;;;4.22;1.70;;;17.60;1.00;;;;;;4917211;29;20046;-89
2023/07/05 04:45:51;;;;;;;3.90;1.58;;;17.60;1.00;;;;;;4913380;29;20036;-88
2023/07/05 04:48:17;;;;;;;2.75;1.45;;;17.60;1.00;;;;;;4915108;29;20048;-90
2023/07/05 04:50:44;;;;;;;2.72;1.70;;;17.70;1.00;;;;;;4913381;29;20044;-92
2023/07/05 04:53:10;;;;;;;3.05;1.80;;;17.70;1.00;;;;;;4912572;29;20032;-88
2023/07/05 04:55:44;;;;;;;7.10;2.30;;;17.70;1.00;;;;;;4933963;29;20036;-82
2023/07/05 04:58:10;;;;;;;4.13;1.55;;;17.80;1.00;;;;;;4934353;29;20054;-94
2023/07/05 05:00:37;;;;;;;6.85;2.05;;;17.80;1.00;;;;;;4922126;29;20056;-82
2023/07/05 05:03:03;;;;;;;3.00;1.52;;;17.80;1.00;;;;;;4918676;29;20055;-83
2023/07/05 05:05:29;;;;;;;2.05;1.05;;;17.80;1.00;;;;;;4918678;29;20379;-81
2023/07/05 05:07:55;;;;;;;3.33;1.35;;;17.90;1.00;;;;;;4916727;29;20051;-84
2023/07/05 05:10:22;;;;;;;2.67;1.25;;;17.90;1.00;;;;;;4914459;29;20043;-81
2023/07/05 05:12:48;;;;;;;5.25;2.00;;;18.00;1.00;;;;;;4915504;29;20046;-82
2023/07/05 05:15:14;;;;;;;9.07;2.35;;;18.00;1.00;;;;;;4913767;29;20044;-82
2023/07/05 05:17:40;;;;;;;6.05;1.95;;;18.00;1.00;;;;;;4922426;29;20059;-82
2023/07/05 05:20:07;;;;;;;4.68;1.55;;;18.00;1.00;;;;;;4930585;29;20406;-82
2023/07/05 05:22:33;;;;;;;4.25;1.90;;;18.00;1.00;;;;;;4932650;29;20044;-80
2023/07/05 05:24:59;;;;;;;5.95;1.90;;;17.90;1.00;;;;;;4915879;29;20056;-84
2023/07/05 05:27:25;;;;;;;4.22;1.98;;;17.90;1.00;;;;;;4932703;29;20043;-84
2023/07/05 05:29:51;;;;;;;4.57;1.90;;;17.90;1.00;;;;;;4931403;29;20048;-83
2023/07/05 05:32:18;;;;;;;5.65;2.45;;;17.90;1.00;;;;;;4931948;29;20036;-82
2023/07/05 05:34:44;;;;;;;5.55;2.47;;;17.80;1.00;;;;;;4933225;29;20054;-81
2023/07/05 05:37:10;;;;;;;4.95;1.90;;;17.60;1.00;;;;;;4932076;29;20028;-88
2023/07/05 05:39:36;;;;;;;6.15;2.63;;;17.00;99.90;;;;;;4930950;29;20031;-81
2023/07/05 05:42:03;;;;;;;6.07;2.53;;;16.60;1.00;;;;;;4931413;29;20032;-79
2023/07/05 05:44:29;;;;;;;4.35;2.53;;;16.10;1.00;;;;;;4932867;29;20055;-86
2023/07/05 05:46:55;;;;;;;4.55;2.45;;;15.80;1.00;;;;;;4933103;29;20040;-83
2023/07/05 05:49:21;;;;;;;6.10;3.17;;;15.70;1.00;;;;;;4914921;29;20039;-84
2023/07/05 05:51:47;;;;;;;8.68;3.10;;;15.60;1.00;;;;;;4935154;29;20038;-82
2023/07/05 05:54:13;;;;;;;9.98;2.95;;;15.70;1.00;;;;;;4934890;29;20036;-83
2023/07/05 05:56:39;;;;;;;5.00;2.55;;;15.70;1.00;;;;;;4935190;29;20040;-83
2023/07/05 05:59:05;;;;;;;5.68;2.72;;;15.70;1.00;;;;;;4935550;29;20035;-83
2023/07/05 06:01:32;;;;;;;5.82;2.63;;;16.00;1.00;;;;;;4934967;29;20039;-82
2023/07/05 06:03:58;;;;;;;6.57;3.53;;;16.20;1.00;;;;;;4945918;29;20046;-83
2023/07/05 06:06:24;;;;;;;4.75;2.65;;;16.40;1.00;;;;;;4937288;29;20040;-84
2023/07/05 06:08:50;;;;;;;4.95;2.38;;;16.60;1.00;;;;;;4937769;29;20048;-84
2023/07/05 06:11:17;;;;;;;5.18;2.60;;;16.60;1.00;;;;;;4934000;29;20032;-83
2023/07/05 06:13:43;;;;;;;4.85;2.42;;;16.60;99.90;;;;;;4937442;29;20494;-86
2023/07/05 06:16:09;;;;;;;5.10;2.25;;;16.60;99.90;;;;;;4937108;29;20039;-83
2023/07/05 06:18:35;;;;;;;3.42;1.73;;;16.50;99.90;;;;;;4936114;29;20059;-84
2023/07/05 06:21:01;;;;;;;4.10;2.10;;;16.70;99.90;;;;;;4935153;29;20055;-83
2023/07/05 06:23:27;;;;;;;9.07;2.10;;;17.00;99.90;;;;;;4935979;29;20039;-85
2023/07/05 06:25:53;;;;;;;4.57;2.03;;;17.20;99.90;;;;;;4936187;29;20359;-84
2023/07/05 06:28:19;;;;;;;5.60;1.92;;;17.20;99.90;;;;;;4916002;29;20059;-83
2023/07/05 06:30:46;;;;;;;4.20;1.92;;;17.50;99.90;;;;;;4936793;29;20048;-84
2023/07/05 06:33:14;;;;;;;4.20;1.98;;;17.90;99.90;;;;;;4937764;29;20031;-87
2023/07/05 06:35:46;;;;;;;4.57;2.40;;;18.00;99.90;;;;;;4936748;29;20054;-83
2023/07/05 06:38:13;;;;;;;6.63;2.53;;;18.10;99.90;;;;;;4936072;29;20146;-86
2023/07/05 06:40:39;;;;;;;6.57;2.67;;;17.80;99.90;;;;;;4936017;29;20403;-84
2023/07/05 06:43:05;;;;;;;4.22;2.53;;;17.60;99.90;;;;;;4937276;29;20451;-83
2023/07/05 06:45:31;;;;;;;4.53;2.47;;;17.80;99.90;;;;;;4936414;29;20043;-82
2023/07/05 06:47:57;;;;;;;5.85;3.08;;;17.60;93.30;;;;;;4936334;29;20055;-84
2023/07/05 06:50:23;;;;;;;7.82;3.53;;;17.60;99.80;;;;;;4935535;29;20039;-85
2023/07/05 06:52:49;;;;;;;6.93;3.33;;;17.70;37.50;;;;;;4936767;29;20028;-84
2023/07/05 06:55:16;;;;;;;5.72;3.58;;;17.60;35.80;;;;;;4936052;29;20047;-88
2023/07/05 06:57:42;;;;;;;5.65;2.55;;;17.80;28.00;;;;;;4935238;29;20047;-81
2023/07/05 07:00:09;;;;;;;6.35;2.85;;;17.60;24.50;;;;;;4932411;29;20399;-82
2023/07/05 07:02:36;;;;;;;5.28;3.05;;;18.10;28.80;;;;;;4931643;29;20027;-81
2023/07/05 07:05:02;;;;;;;6.88;4.00;;;18.40;13.40;;;;;;4934839;29;20039;-81
2023/07/05 07:07:28;;;;;;;6.38;3.65;;;18.50;46.50;;;;;;4934371;29;20030;-86
2023/07/05 07:09:54;;;;;;;11.63;3.65;;;18.70;1.00;;;;;;4933091;29;20043;-84
2023/07/05 07:12:21;;;;;;;6.40;3.78;;;18.70;1.00;;;;;;4934136;29;20062;-83
2023/07/05 07:14:47;;;;;;;7.82;4.35;;;18.70;1.00;;;;;;4935448;29;20071;-79
2023/07/05 07:17:13;;;;;;;6.45;2.97;;;18.80;1.00;;;;;;4936385;29;20047;-81
2023/07/05 07:19:39;;;;;;;7.03;3.00;;;19.30;1.00;;;;;;4936393;29;20030;-81
2023/07/05 07:22:05;;;;;;;4.38;2.67;;;19.20;1.00;;;;;;4939101;29;20046;-83
2023/07/05 07:24:32;;;;;;;7.20;2.70;;;19.20;1.00;;;;;;4946756;29;20042;-82
2023/07/05 07:26:58;;;;;;;5.40;2.90;;;19.60;99.90;;;;;;4953316;29;20046;-81
2023/07/05 07:29:24;;;;;;;6.25;3.80;;;19.70;99.90;;;;;;4935632;29;20434;-82
2023/07/05 07:31:50;;;;;;;4.82;3.22;;;19.90;99.90;;;;;;4941707;29;20039;-83
2023/07/05 07:34:17;;;;;;;4.80;3.05;;;19.80;99.90;;;;;;4925463;29;20043;-82
2023/07/05 07:36:45;;;;;;;5.75;3.45;;;19.30;99.90;;;;;;4927046;29;20046;-84
2023/07/05 07:39:11;;;;;;;10.27;3.83;;;18.80;99.90;;;;;;4931841;29;20047;-81
2023/07/05 07:41:38;;;;;;;4.40;2.45;;;18.60;99.90;;;;;;4926281;29;20039;-83
2023/07/05 07:44:07;;;;;;;7.28;3.85;;;18.90;99.90;;;;;;4925026;29;20046;-81
2023/07/05 07:46:34;;;;;;;6.25;3.78;;;19.10;99.90;;;;;;4925880;29;20040;-80
2023/07/05 07:49:02;;;;;;;6.85;3.00;;;19.20;99.90;;;;;;4931453;29;20040;-78
2023/07/05 07:51:31;;;;;;;8.65;3.90;;;18.50;99.90;;;;;;4934030;29;20050;-81
2023/07/05 07:53:57;;;;;;;5.63;2.90;;;18.60;99.90;;;;;;4920753;29;20058;-81
2023/07/05 07:56:24;;;;;;;4.63;3.15;;;19.30;99.90;;;;;;4933863;29;20051;-84
2023/07/05 07:58:53;;;;;;;5.45;3.70;;;20.10;99.90;;;;;;4933704;29;20055;-83
2023/07/05 08:01:23;;;;;;;5.37;2.83;;;19.80;99.90;;;;;;4931236;29;20030;-81
2023/07/05 08:03:49;;;;;;;4.60;3.33;;;19.20;99.90;;;;;;4932342;29;20035;-82
2023/07/05 08:06:16;;;;;;;5.05;2.85;;;19.20;99.90;;;;;;4893775;29;20123;-83
2023/07/05 08:08:42;;;;;;;4.03;2.50;;;18.90;99.90;;;;;;4932942;29;20047;-81
2023/07/05 08:11:09;;;;;;;8.07;3.63;;;19.20;99.90;;;;;;4927785;29;20047;-84
2023/07/05 08:13:40;;;;;;;6.60;3.15;;;19.10;99.90;;;;;;4933468;29;20040;-83
2023/07/05 08:16:07;;;;;;;;;;;18.90;99.90;;;;;;4933390;29;20040;-82
2023/07/05 08:18:33;;;;;;;5.85;3.10;;;18.90;99.90;;;;;;4932456;29;19930;-83
2023/07/05 08:20:59;;;;;;;5.03;3.15;;;18.90;99.90;;;;;;4932256;29;20051;-81
2023/07/05 08:23:25;;;;;;;6.07;2.53;;;19.10;99.90;;;;;;4932791;29;20039;-83
2023/07/05 08:25:55;;;;;;;6.07;2.88;;;19.10;99.90;;;;;;4933198;29;20044;-84
2023/07/05 08:28:26;;;;;;;5.97;2.60;;;19.20;99.90;;;;;;4932845;29;20046;-81
2023/07/05 08:31:00;;;;;;;6.25;2.60;;;19.20;99.90;;;;;;4934376;29;20042;-83
2023/07/05 08:33:28;;;;;;;4.10;1.92;;;19.00;99.90;;;;;;4934667;29;20035;-83
2023/07/05 08:36:18;;;;;;;5.63;2.40;;;19.10;99.90;;;;;;4932199;29;20455;-82
2023/07/05 08:38:50;;;;;;;5.43;2.67;;;19.40;99.90;;;;;;4930946;29;20043;-83
2023/07/05 08:41:33;;;;;;;4.07;2.08;;;19.80;99.90;;;;;;4931074;29;20059;-82
2023/07/05 08:44:03;;;;;;;5.80;2.42;;;19.50;99.90;;;;;;4932716;29;20446;-84
2023/07/05 08:46:30;;;;;;;5.30;1.80;;;19.70;99.90;;;;;;4932301;29;20051;-82
2023/07/05 08:49:03;;;;;;;4.93;2.10;;;19.80;99.90;;;;;;4933399;29;20032;-81
2023/07/05 08:51:30;;;;;;;3.25;1.98;;;19.60;99.90;;;;;;4932193;29;20375;-80
2023/07/05 08:54:00;;;;;;;3.80;1.80;;;19.30;99.90;;;;;;4932885;29;20031;-82
2023/07/05 08:56:38;;;;;;;6.43;2.30;;;19.70;99.90;;;;;;4930640;29;20145;-83
2023/07/05 08:59:13;;;;;;;4.28;2.70;;;20.10;99.90;;;;;;4930764;29;20036;-79
2023/07/05 09:01:42;;;;;;;5.20;2.47;;;20.00;99.90;;;;;;4931106;29;20375;-79
2023/07/05 09:04:20;;;;;;;4.45;2.20;;;19.00;99.90;;;;;;4930456;29;20036;-81
2023/07/05 09:06:55;;;;;;;6.15;2.25;;;19.60;99.90;;;;;;4932509;29;20031;-79
2023/07/05 09:09:26;;;;;;;3.28;2.13;;;20.40;99.90;;;;;;4929892;29;20052;-80
2023/07/05 09:12:57;;;;;;;5.20;2.35;;;20.90;99.90;;;;;;4931985;29;20518;-81
2023/07/05 09:15:29;;;;;;;4.25;2.60;;;21.50;99.90;;;;;;4826768;29;20062;-80
2023/07/05 09:18:19;;;;;;;4.35;2.05;;;21.60;99.90;;;;;;4930476;29;20059;-82
2023/07/05 09:20:52;;;;;;;7.60;2.50;;;21.30;99.90;;;;;;4931026;29;20561;-80
2023/07/05 09:23:41;;;;;;;6.35;2.65;;;20.60;99.90;;;;;;4932139;29;20391;-81
2023/07/05 09:26:27;;;;;;;3.88;1.90;;;21.20;99.90;;;;;;4921138;29;20039;-83
2023/07/05 09:29:23;;;;;;;6.18;2.33;;;21.50;99.90;;;;;;4935196;29;20043;-83
2023/07/05 09:31:51;;;;;;;3.33;2.42;;;21.40;99.90;;;;;;4937030;29;20408;-83
2023/07/05 09:34:51;;;;;;;2.78;1.85;;;21.00;99.90;;;;;;4936304;29;20048;-81
2023/07/05 09:37:22;;;;;;;;;;;20.30;99.90;;;;;;4908172;29;20520;-82
2023/07/05 09:40:11;;;;;;;5.07;2.10;;;20.10;99.90;;;;;;4925287;29;20273;-81
2023/07/05 09:42:49;;;;;;;7.17;2.07;;;19.80;99.90;;;;;;4936226;29;20040;-79
2023/07/05 09:45:17;;;;;;;6.07;2.53;;;19.40;99.90;;;;;;4936068;29;20039;-80
2023/07/05 09:47:46;;;;;;;6.55;3.00;;;19.80;99.90;;;;;;4938645;29;20044;-80
2023/07/05 09:50:21;;;;;;;5.43;2.17;;;19.60;99.90;;;;;;4934629;29;20040;-82
2023/07/05 09:52:59;;;;;;;3.65;1.83;;;19.40;99.90;;;;;;4933555;29;20140;-79
2023/07/05 09:55:26;;;;;;;3.78;1.80;;;20.00;99.90;;;;;;4936131;29;20035;-79
2023/07/05 09:57:53;;;;;;;3.72;1.75;;;20.20;99.90;;;;;;4927805;29;20052;-82
2023/07/05 10:00:35;;;;;;;3.35;1.80;;;20.40;99.90;;;;;;4934402;29;20040;-80
2023/07/05 10:03:14;;;;;;;5.80;2.47;;;20.10;99.90;;;;;;4935105;29;20043;-79
2023/07/05 10:05:54;;;;;;;5.35;2.13;;;19.90;99.90;;;;;;4935393;29;20040;-79
2023/07/05 10:08:22;;;;;;;5.90;1.83;;;19.80;99.90;;;;;;4934870;29;20039;-80
2023/07/05 10:10:48;;;;;;;4.28;1.80;;;20.70;99.90;;;;;;4936557;29;20039;-77
2023/07/05 10:13:21;;;;;;;2.83;1.63;;;21.10;99.90;;;;;;4932671;29;20052;-79
2023/07/05 10:15:57;;;;;;;5.30;2.47;;;20.50;99.90;;;;;;4938405;29;20430;-81
2023/07/05 10:18:34;;;;;;;5.18;2.28;;;20.40;99.90;;;;;;4935355;29;20122;-79
2023/07/05 10:21:18;;;;;;;3.30;1.50;;;20.10;99.90;;;;;;4933883;29;20040;-82
2023/07/05 10:23:45;;;;;;;6.35;1.80;;;20.40;99.90;;;;;;4935444;29;20051;-82
2023/07/05 10:26:11;;;;;;;4.45;1.50;;;20.70;99.90;;;;;;4935973;29;20324;-84
2023/07/05 10:28:41;;;;;;;2.90;1.48;;;21.20;99.90;;;;;;4934983;29;20035;-80
2023/07/05 10:31:25;;;;;;;3.92;1.75;;;22.10;99.90;;;;;;4933471;29;20040;-80
2023/07/05 10:34:04;;;;;;;3.67;1.88;;;22.60;94.90;;;;;;4934839;29;20044;-81
2023/07/05 10:36:30;;;;;;;3.22;1.55;;;23.00;86.80;;;;;;4933227;29;20043;-81
2023/07/05 10:38:57;;;;;;;3.45;1.67;;;22.60;72.60;;;;;;4934578;29;20473;-80
2023/07/05 10:41:32;;;;;;;3.35;2.00;;;22.30;84.70;;;;;;4916672;29;20044;-80
2023/07/05 10:44:19;;;;;;;2.75;1.52;;;21.00;94.50;;;;;;4935148;29;20050;-78
2023/07/05 10:46:46;;;;;;;3.20;1.30;;;20.50;99.90;;;;;;4934812;29;20040;-80
2023/07/05 10:49:15;;;;;;;2.85;1.35;;;20.20;99.90;;;;;;4934779;29;20031;-80
2023/07/05 10:51:47;;;;;;;3.83;2.00;;;20.00;99.90;;;;;;4935271;29;20039;-79
2023/07/05 10:54:31;;;;;;;4.75;2.25;;;19.90;99.90;;;;;;4928235;29;20040;-82
2023/07/05 10:57:00;;;;;;;9.13;1.85;;;20.00;99.90;;;;;;4934031;29;20146;-82
2023/07/05 10:59:38;;;;;;;3.95;1.48;;;20.10;99.90;;;;;;4933156;29;20032;-80
2023/07/05 11:02:33;;;;;;;3.13;1.48;;;20.00;99.90;;;;;;4934292;29;20059;-79
2023/07/05 11:05:00;;;;;;;4.25;1.67;;;20.10;99.90;;;;;;4934933;29;20046;-79
2023/07/05 11:07:31;;;;;;;4.22;1.40;;;20.20;99.90;;;;;;4934760;29;20463;-80
2023/07/05 11:10:01;;;;;;;3.88;1.75;;;20.30;99.90;;;;;;4933148;29;20032;-82
2023/07/05 11:12:29;;;;;;;4.53;2.03;;;20.30;99.90;;;;;;4937351;29;20491;-78
2023/07/05 11:14:58;;;;;;;4.53;2.13;;;20.50;99.90;;;;;;4935611;29;20467;-81
2023/07/05 11:17:37;;;;;;;3.22;1.45;;;20.60;99.90;;;;;;4933255;29;20048;-80
2023/07/05 11:20:30;;;;;;;4.28;1.20;;;21.00;93.70;;;;;;4934302;29;20039;-80
2023/07/05 11:22:56;;;;;;;17.40;2.22;;;21.20;94.10;;;;;;4927579;29;20372;-79
2023/07/05 11:25:54;;;;;;;8.35;2.00;;;21.40;94.10;;;;;;4935644;29;20051;-81
2023/07/05 11:28:37;;;;;;;4.80;1.33;;;21.50;92.00;;;;;;4936865;29;20040;-82
2023/07/05 11:31:08;;;;;;;4.35;1.70;;;22.00;82.90;;;;;;4933204;29;20046;-79
2023/07/05 11:33:35;;;;;;;;;;;22.00;65.60;;;;;;4935450;29;20039;-79
2023/07/05 11:36:27;;;;;;;3.55;1.50;;;22.00;79.20;;;;;;4934529;29;19934;-83
2023/07/05 11:38:58;;;;;;;5.07;1.52;;;22.30;58.90;;;;;;4934244;29;20054;-81
2023/07/05 11:41:32;;;;;;;1.60;0.90;;;22.50;53.60;;;;;;4934793;29;20035;-80
2023/07/05 11:44:25;;;;;;;3.80;1.25;;;22.40;40.20;;;;;;4935314;29;20379;-80
2023/07/05 11:46:52;;;;;;;5.45;1.52;;;22.10;38.80;;;;;;4934996;29;20032;-79
2023/07/05 11:49:28;;;;;;;2.50;1.05;;;21.90;56.10;;;;;;4935927;29;20035;-80
2023/07/05 11:52:11;;;;;;;5.90;1.50;;;21.90;52.70;;;;;;4935346;29;20043;-78
2023/07/05 11:55:06;;;;;;;5.35;1.50;;;22.00;45.80;;;;;;4917332;29;20043;-79
2023/07/05 11:57:44;;;;;;;5.07;2.00;;;22.00;45.20;;;;;;4931999;29;20047;-78
2023/07/05 12:00:18;;;;;;;4.40;1.10;;;22.20;42.10;;;;;;4934206;29;20035;-79
2023/07/05 12:02:56;;;;;;;4.53;1.45;;;22.20;38.00;;;;;;4942034;29;20040;-80
2023/07/05 12:05:25;;;;;;;3.72;1.30;;;22.30;44.10;;;;;;4933467;29;20052;-80
2023/07/05 12:08:07;;;;;;;3.03;1.07;;;22.20;41.00;;;;;;4933581;29;20051;-79
2023/07/05 12:10:35;;;;;;;3.70;1.15;;;22.20;47.70;;;;;;4940940;29;20051;-79
2023/07/05 12:13:03;;;;;;;3.22;1.30;;;22.70;36.10;;;;;;4935437;29;20098;-78
2023/07/05 12:15:35;;;;;;;3.08;1.25;;;22.60;26.40;;;;;;4924541;29;20052;-77
2023/07/05 12:18:02;;;;;;;2.45;1.05;;;22.60;26.40;;;;;;4943164;29;20051;-79
2023/07/05 12:20:40;;;;;;;2.83;1.02;;;22.80;29.30;;;;;;4938747;29;20047;-80
2023/07/05 12:23:13;;;;;;;4.95;1.33;;;23.00;22.60;;;;;;4933884;29;20036;-81
2023/07/05 12:25:40;;;;;;;3.72;1.30;;;23.30;20.70;;;;;;4932956;29;20040;-79
2023/07/05 12:28:16;;;;;;;3.15;1.65;;;23.30;19.10;;;;;;4918914;29;20043;-80
2023/07/05 12:30:42;;;;;;;5.95;1.58;;;22.30;19.70;;;;;;4931100;29;20043;-80
2023/07/05 12:33:24;;;;;;;4.20;1.13;;;22.40;30.20;;;;;;4933676;29;20036;-78
2023/07/05 12:36:11;;;;;;;4.15;1.00;;;23.00;23.70;;;;;;4942238;29;20050;-82
2023/07/05 12:38:40;;;;;;;4.18;2.03;;;22.80;19.50;;;;;;4941188;29;20039;-80
2023/07/05 12:41:14;;;;;;;4.97;1.70;;;23.00;19.60;;;;;;4941145;29;20517;-79
2023/07/05 12:43:40;;;;;;;3.05;1.73;;;23.20;19.20;;;;;;4935007;29;20035;-80
2023/07/05 12:46:11;;;;;;;2.70;1.55;;;23.50;15.10;;;;;;4933400;29;20039;-79
2023/07/05 12:48:37;;;;;;;3.58;1.42;;;23.30;12.40;;;;;;4912398;29;20059;-79
2023/07/05 12:51:15;;;;;;;4.70;1.23;;;23.60;7.90;;;;;;4932853;29;20036;-83
2023/07/05 12:53:41;;;;;;;3.38;1.10;;;23.60;6.30;;;;;;4931878;29;20036;-81
2023/07/05 12:56:13;;;;;;;3.75;1.10;;;23.70;4.70;;;;;;4932625;29;20094;-79
2023/07/05 12:58:50;;;;;;;3.03;1.20;;;23.50;6.20;;;;;;4932547;29;20043;-80
2023/07/05 13:01:18;;;;;;;4.25;1.33;;;23.20;6.90;;;;;;4934930;29;20479;-84
2023/07/05 13:03:47;;;;;;;3.60;1.20;;;23.40;6.80;;;;;;4936911;29;20394;-80
2023/07/05 13:06:15;;;;;;;4.38;1.23;;;23.20;9.20;;;;;;4937443;29;20039;-80
2023/07/05 13:08:46;;;;;;;3.70;1.25;;;23.00;8.70;;;;;;4936581;29;20032;-78